createdAt,value
2022-11-05T00:00:38.150Z,99673.84
2022-11-05T00:03:30.401Z,99669.94
2022-11-05T00:06:16.771Z,99672.06
2022-11-05T00:09:03.717Z,99668.34
2022-11-05T00:11:50.198Z,99680.88
2022-11-05T00:14:36.486Z,99672.00
2022-11-05T00:17:04.136Z,99678.47
2022-11-05T00:19:32.026Z,99683.91
2022-11-05T00:22:18.362Z,99683.63
2022-11-05T00:25:04.996Z,99684.16
2022-11-05T00:27:34.275Z,99687.28
2022-11-05T00:30:07.115Z,99682.59
2022-11-05T00:32:37.133Z,99685.50
2022-11-05T00:35:07.034Z,99687.63
2022-11-05T00:37:35.009Z,99683.22
2022-11-05T00:40:03.913Z,99692.81
2022-11-05T00:42:50.048Z,99685.28
2022-11-05T00:45:18.140Z,99679.94
2022-11-05T00:48:24.488Z,99672.09
2022-11-05T00:50:52.410Z,99666.56
2022-11-05T00:53:20.107Z,99654.66
2022-11-05T00:55:48.472Z,99662.44
2022-11-05T00:58:19.189Z,99655.63
2022-11-05T01:00:58.123Z,99648.56
2022-11-05T01:03:31.503Z,99646.22
2022-11-05T01:06:08.208Z,99644.53
2022-11-05T01:08:36.060Z,99651.91
2022-11-05T01:11:11.016Z,99668.34
2022-11-05T01:13:40.246Z,99662.53
2022-11-05T01:16:10.094Z,99665.13
2022-11-05T01:18:38.933Z,99659.28
2022-11-05T01:21:16.041Z,99659.38
2022-11-05T01:23:43.820Z,99668.63
2022-11-05T01:26:11.853Z,99666.94
2022-11-05T01:28:40.770Z,99667.69
2022-11-05T01:31:08.763Z,99660.22
2022-11-05T01:33:36.487Z,99654.44
2022-11-05T01:36:05.940Z,99657.06
2022-11-05T01:38:33.675Z,99667.88
2022-11-05T01:41:01.797Z,99652.06
2022-11-05T01:43:45.330Z,99665.19
2022-11-05T01:46:14.272Z,99668.91
2022-11-05T01:48:41.965Z,99665.25
2022-11-05T01:51:13.728Z,99679.09
2022-11-05T01:54:09.950Z,99677.81
2022-11-05T01:57:00.808Z,99685.78
2022-11-05T01:59:37.023Z,99687.72
2022-11-05T02:02:07.856Z,99695.25
2022-11-05T02:04:47.873Z,99696.50
2022-11-05T02:07:17.343Z,99694.53
2022-11-05T02:09:54.921Z,99694.78
2022-11-05T02:12:24.148Z,99693.06
2022-11-05T02:14:51.830Z,99701.47
2022-11-05T02:17:41.664Z,99697.94
2022-11-05T02:20:13.024Z,99697.88
2022-11-05T02:23:02.135Z,99687.84
2022-11-05T02:25:35.521Z,99690.34
2022-11-05T02:28:39.219Z,99685.06
2022-11-05T02:31:22.839Z,99695.81
2022-11-05T02:33:57.802Z,99697.25
2022-11-05T02:36:40.020Z,99695.34
2022-11-05T02:39:16.491Z,99688.69
2022-11-05T02:42:02.037Z,99693.84
2022-11-05T02:44:47.757Z,99700.50
2022-11-05T02:47:46.187Z,99697.63
2022-11-05T02:50:40.193Z,99697.41
2022-11-05T02:53:27.868Z,99689.28
2022-11-05T02:56:19.266Z,99702.63
2022-11-05T02:58:46.904Z,99701.19
2022-11-05T03:01:15.319Z,99714.25
2022-11-05T03:03:48.570Z,99716.97
2022-11-05T03:06:58.708Z,99720.81
2022-11-05T03:10:00.315Z,99720.13
2022-11-05T03:12:42.149Z,99725.34
2022-11-05T03:15:32.746Z,99720.31
2022-11-05T03:18:31.056Z,99720.13
2022-11-05T03:21:18.181Z,99725.22
2022-11-05T03:23:52.005Z,99731.91
2022-11-05T03:26:19.779Z,99735.53
2022-11-05T03:28:56.393Z,99725.09
2022-11-05T03:31:28.186Z,99730.31
2022-11-05T03:33:59.506Z,99721.41
2022-11-05T03:36:44.980Z,99729.88
2022-11-05T03:39:19.197Z,99726.97
2022-11-05T03:41:51.949Z,99731.69
2022-11-05T03:44:27.035Z,99727.94
2022-11-05T03:47:00.794Z,99723.38
2022-11-05T03:49:48.892Z,99729.88
2022-11-05T03:52:19.894Z,99716.69
2022-11-05T03:54:47.992Z,99722.66
2022-11-05T03:57:29.591Z,99726.34
2022-11-05T03:59:57.682Z,99722.25
2022-11-05T04:02:27.220Z,99732.75
2022-11-05T04:04:55.488Z,99742.13
2022-11-05T04:07:41.794Z,99745.25
2022-11-05T04:10:28.844Z,99755.69
2022-11-05T04:13:15.065Z,99762.09
2022-11-05T04:16:01.689Z,99764.78
2022-11-05T04:18:29.420Z,99778.38
2022-11-05T04:21:16.076Z,99779.31
2022-11-05T04:24:02.508Z,99794.09
2022-11-05T04:26:30.477Z,99787.75
2022-11-05T04:29:16.538Z,99794.75
2022-11-05T04:31:44.459Z,99789.69
2022-11-05T04:34:12.095Z,99797.78
2022-11-05T04:36:40.069Z,99801.72
2022-11-05T04:39:07.775Z,99803.66
2022-11-05T04:41:35.669Z,99798.03
2022-11-05T04:44:03.454Z,99800.38
2022-11-05T04:46:31.405Z,99798.00
2022-11-05T04:48:59.122Z,99794.09
2022-11-05T04:51:27.352Z,99784.25
2022-11-05T04:53:55.147Z,99793.38
2022-11-05T04:56:24.643Z,99787.09
2022-11-05T04:58:52.313Z,99793.41
2022-11-05T05:01:22.870Z,99791.97
2022-11-05T05:03:51.994Z,99803.22
2022-11-05T05:06:20.272Z,99820.84
2022-11-05T05:08:49.469Z,99824.53
2022-11-05T05:11:19.566Z,99830.53
2022-11-05T05:13:47.998Z,99831.50
2022-11-05T05:16:23.439Z,99831.50
2022-11-05T05:18:51.882Z,99827.03
2022-11-05T05:21:40.474Z,99825.31
2022-11-05T05:24:14.433Z,99831.75
2022-11-05T05:26:48.138Z,99829.47
2022-11-05T05:29:16.775Z,99838.56
2022-11-05T05:31:45.237Z,99837.97
2022-11-05T05:34:14.371Z,99836.63
2022-11-05T05:36:42.428Z,99841.72
2022-11-05T05:39:12.872Z,99847.88
2022-11-05T05:41:40.805Z,99851.41
2022-11-05T05:44:08.808Z,99856.50
2022-11-05T05:46:36.772Z,99858.66
2022-11-05T05:49:11.062Z,99862.06
2022-11-05T05:51:40.445Z,99857.81
2022-11-05T05:54:08.141Z,99868.72
2022-11-05T05:56:36.054Z,99867.28
2022-11-05T05:59:04.995Z,99874.84
2022-11-05T06:01:33.002Z,99871.13
2022-11-05T06:04:00.824Z,99864.19
2022-11-05T06:06:28.935Z,99870.16
2022-11-05T06:08:56.691Z,99861.47
2022-11-05T06:11:25.829Z,99854.06
2022-11-05T06:13:53.463Z,99859.25
2022-11-05T06:16:21.446Z,99862.53
2022-11-05T06:18:49.387Z,99864.03
2022-11-05T06:21:18.119Z,99872.44
2022-11-05T06:23:48.369Z,99866.75
2022-11-05T06:26:18.615Z,99878.22
2022-11-05T06:28:46.667Z,99885.38
2022-11-05T06:31:15.405Z,99894.09
2022-11-05T06:33:43.228Z,99891.38
2022-11-05T06:36:16.286Z,99893.09
2022-11-05T06:38:44.342Z,99894.09
2022-11-05T06:41:12.403Z,99903.59
2022-11-05T06:43:40.367Z,99913.06
2022-11-05T06:46:09.923Z,99899.00
2022-11-05T06:48:38.066Z,99900.06
2022-11-05T06:51:08.209Z,99908.44
2022-11-05T06:53:36.831Z,99900.19
2022-11-05T06:56:06.944Z,99909.03
2022-11-05T06:58:35.279Z,99903.06
2022-11-05T07:01:05.412Z,99911.16
2022-11-05T07:03:33.052Z,99908.22
2022-11-05T07:06:03.169Z,99910.41
2022-11-05T07:08:38.070Z,99901.34
2022-11-05T07:11:06.390Z,99905.50
2022-11-05T07:13:34.167Z,99896.75
2022-11-05T07:16:02.180Z,99902.00
2022-11-05T07:18:29.930Z,99890.06
2022-11-05T07:21:00.743Z,99901.88
2022-11-05T07:23:28.662Z,99907.69
2022-11-05T07:25:56.608Z,99908.13
2022-11-05T07:28:24.218Z,99907.84
2022-11-05T07:30:52.323Z,99913.69
2022-11-05T07:33:20.061Z,99916.47
2022-11-05T07:35:47.933Z,99915.03
2022-11-05T07:38:15.615Z,99917.78
2022-11-05T07:40:43.579Z,99935.97
2022-11-05T07:43:11.462Z,99943.47
2022-11-05T07:45:39.489Z,99954.25
2022-11-05T07:48:07.541Z,99941.84
2022-11-05T07:50:36.896Z,99946.91
2022-11-05T07:53:13.080Z,99940.03
2022-11-05T07:55:42.550Z,99942.22
2022-11-05T07:58:11.137Z,99937.22
2022-11-05T08:00:39.262Z,99934.81
2022-11-05T08:03:18.331Z,99943.81
2022-11-05T08:05:48.075Z,99939.69
2022-11-05T08:08:18.956Z,99949.69
2022-11-05T08:10:47.495Z,99959.53
2022-11-05T08:13:16.229Z,99952.75
2022-11-05T08:15:44.973Z,99966.97
2022-11-05T08:18:17.493Z,99972.13
2022-11-05T08:20:47.808Z,99971.59
2022-11-05T08:23:15.926Z,99974.81
2022-11-05T08:25:44.017Z,99981.19
2022-11-05T08:28:13.057Z,99976.88
2022-11-05T08:30:41.361Z,99963.22
2022-11-05T08:33:13.633Z,99966.69
2022-11-05T08:35:42.047Z,99966.88
2022-11-05T08:38:13.861Z,99976.44
2022-11-05T08:40:43.240Z,99985.13
2022-11-05T08:43:13.234Z,99974.13
2022-11-05T08:45:42.428Z,99988.53
2022-11-05T08:48:12.727Z,99991.47
2022-11-05T08:50:41.246Z,99993.31
2022-11-05T08:53:10.121Z,100003.03
2022-11-05T08:55:38.682Z,100001.44
2022-11-05T08:58:12.444Z,99994.16
2022-11-05T09:00:41.257Z,99981.81
2022-11-05T09:03:10.602Z,99997.91
2022-11-05T09:05:40.877Z,100001.50
2022-11-05T09:08:10.615Z,100000.59
2022-11-05T09:10:38.593Z,100008.66
2022-11-05T09:13:06.745Z,100004.84
2022-11-05T09:15:38.442Z,100015.31
2022-11-05T09:18:06.302Z,100007.06
2022-11-05T09:20:36.517Z,100005.47
2022-11-05T09:23:04.559Z,100000.22
2022-11-05T09:25:33.416Z,100005.34
2022-11-05T09:28:16.562Z,100004.13
2022-11-05T09:30:47.772Z,100009.13
2022-11-05T09:33:16.914Z,100020.81
2022-11-05T09:35:45.539Z,100025.94
2022-11-05T09:38:14.059Z,100027.88
2022-11-05T09:40:45.439Z,100036.88
2022-11-05T09:43:20.584Z,100033.00
2022-11-05T09:45:56.579Z,100032.25
2022-11-05T09:48:28.959Z,100032.06
2022-11-05T09:50:58.318Z,100040.09
2022-11-05T09:53:26.419Z,100040.88
2022-11-05T09:56:00.342Z,100043.38
2022-11-05T09:58:38.824Z,100052.16
2022-11-05T10:01:14.422Z,100054.53
2022-11-05T10:03:54.787Z,100062.13
2022-11-05T10:06:26.025Z,100063.91
2022-11-05T10:09:07.031Z,100062.38
2022-11-05T10:11:41.922Z,100064.16
2022-11-05T10:14:29.129Z,100081.00
2022-11-05T10:17:22.421Z,100083.63
2022-11-05T10:20:15.131Z,100076.94
2022-11-05T10:22:48.271Z,100084.34
2022-11-05T10:25:19.062Z,100092.66
2022-11-05T10:27:55.068Z,100098.25
2022-11-05T10:30:23.202Z,100101.97
2022-11-05T10:32:56.212Z,100090.94
2022-11-05T10:35:26.859Z,100094.09
2022-11-05T10:37:55.928Z,100096.41
2022-11-05T10:40:30.741Z,100095.88
2022-11-05T10:43:40.917Z,100095.81
2022-11-05T10:46:33.856Z,100104.22
2022-11-05T10:49:28.972Z,100108.47
2022-11-05T10:51:59.939Z,100098.00
2022-11-05T10:54:35.190Z,100108.84
2022-11-05T10:57:27.447Z,100111.44
2022-11-05T11:00:14.941Z,100107.91
2022-11-05T11:02:43.649Z,100130.41
2022-11-05T11:05:19.300Z,100114.88
2022-11-05T11:08:14.398Z,100125.34
2022-11-05T11:11:02.742Z,100127.72
2022-11-05T11:13:51.466Z,100129.53
2022-11-05T11:16:26.454Z,100119.94
2022-11-05T11:18:56.881Z,100120.66
2022-11-05T11:21:26.274Z,100126.69
2022-11-05T11:23:56.836Z,100124.97
2022-11-05T11:26:28.996Z,100120.19
2022-11-05T11:29:07.260Z,100114.09
2022-11-05T11:31:39.352Z,100116.59
2022-11-05T11:34:33.787Z,100112.75
2022-11-05T11:37:22.312Z,100110.28
2022-11-05T11:39:55.914Z,100110.53
2022-11-05T11:42:39.340Z,100118.31
2022-11-05T11:45:20.974Z,100121.66
2022-11-05T11:47:50.997Z,100126.22
2022-11-05T11:50:38.818Z,100133.28
2022-11-05T11:53:26.042Z,100135.22
2022-11-05T11:56:17.655Z,100130.09
2022-11-05T11:58:57.768Z,100137.97
2022-11-05T12:01:45.170Z,100133.44
2022-11-05T12:04:32.636Z,100139.28
2022-11-05T12:07:13.767Z,100146.09
2022-11-05T12:10:10.018Z,100149.69
2022-11-05T12:13:05.016Z,100154.13
2022-11-05T12:15:53.969Z,100164.28
2022-11-05T12:18:30.629Z,100174.38
2022-11-05T12:20:58.660Z,100167.94
2022-11-05T12:24:06.520Z,100167.53
2022-11-05T12:27:19.344Z,100170.44
2022-11-05T12:30:11.857Z,100169.63
2022-11-05T12:33:17.659Z,100179.50
2022-11-05T12:35:53.331Z,100178.66
2022-11-05T12:38:44.706Z,100172.00
2022-11-05T12:41:26.100Z,100176.06
2022-11-05T12:44:15.523Z,100174.88
2022-11-05T12:47:06.607Z,100172.75
2022-11-05T12:49:40.279Z,100177.97
2022-11-05T12:52:25.748Z,100180.63
2022-11-05T12:55:03.269Z,100167.41
2022-11-05T12:57:33.443Z,100179.34
2022-11-05T13:00:04.468Z,100179.44
2022-11-05T13:02:47.522Z,100184.66
2022-11-05T13:05:30.419Z,100186.63
2022-11-05T13:08:15.664Z,100181.72
2022-11-05T13:10:51.895Z,100178.03
2022-11-05T13:13:51.955Z,100182.19
2022-11-05T13:16:55.462Z,100182.25
2022-11-05T13:19:41.675Z,100187.97
2022-11-05T13:22:28.333Z,100181.44
2022-11-05T13:25:28.109Z,100174.59
2022-11-05T13:28:18.137Z,100184.66
2022-11-05T13:30:52.773Z,100180.69
2022-11-05T13:33:25.939Z,100176.72
2022-11-05T13:36:24.271Z,100180.25
2022-11-05T13:39:20.117Z,100190.09
2022-11-05T13:42:16.549Z,100190.78
2022-11-05T13:45:08.621Z,100197.72
2022-11-05T13:48:00.665Z,100197.53
2022-11-05T13:50:31.396Z,100197.81
2022-11-05T13:53:01.791Z,100199.72
2022-11-05T13:55:32.574Z,100199.53
2022-11-05T13:58:15.590Z,100220.31
2022-11-05T14:01:05.496Z,100220.50
2022-11-05T14:03:33.397Z,100226.69
2022-11-05T14:06:07.655Z,100230.00
2022-11-05T14:08:40.395Z,100233.63
2022-11-05T14:11:31.708Z,100241.88
2022-11-05T14:14:04.560Z,100243.31
2022-11-05T14:17:07.770Z,100256.09
2022-11-05T14:19:58.074Z,100254.22
2022-11-05T14:22:32.145Z,100259.16
2022-11-05T14:25:19.313Z,100262.22
2022-11-05T14:27:50.539Z,100263.13
2022-11-05T14:30:41.587Z,100264.84
2022-11-05T14:33:24.491Z,100271.00
2022-11-05T14:35:53.833Z,100261.41
2022-11-05T14:38:27.891Z,100271.00
2022-11-05T14:41:03.529Z,100275.81
2022-11-05T14:43:33.911Z,100282.59
2022-11-05T14:46:06.181Z,100270.16
2022-11-05T14:48:40.421Z,100276.97
2022-11-05T14:51:28.980Z,100275.56
2022-11-05T14:54:22.787Z,100289.72
2022-11-05T14:56:59.972Z,100289.78
2022-11-05T14:59:28.351Z,100280.88
2022-11-05T15:02:03.493Z,100282.63
2022-11-05T15:04:45.347Z,100282.75
2022-11-05T15:07:25.125Z,100293.63
2022-11-05T15:09:59.004Z,100283.09
2022-11-05T15:12:52.166Z,100300.50
2022-11-05T15:15:40.217Z,100291.91
2022-11-05T15:18:38.760Z,100301.16
2022-11-05T15:21:13.382Z,100305.19
2022-11-05T15:23:43.511Z,100303.59
2022-11-05T15:26:26.793Z,100303.97
2022-11-05T15:28:55.900Z,100301.84
2022-11-05T15:31:26.926Z,100303.63
2022-11-05T15:34:23.472Z,100303.97
2022-11-05T15:37:00.635Z,100307.34
2022-11-05T15:39:42.100Z,100314.50
2022-11-05T15:42:15.819Z,100314.56
2022-11-05T15:44:49.038Z,100325.91
2022-11-05T15:47:20.932Z,100321.50
2022-11-05T15:49:54.891Z,100315.13
2022-11-05T15:52:34.747Z,100320.03
2022-11-05T15:55:13.886Z,100312.44
2022-11-05T15:57:50.462Z,100318.41
2022-11-05T16:00:22.341Z,100321.09
2022-11-05T16:03:00.661Z,100318.72
2022-11-05T16:05:33.708Z,100331.03
2022-11-05T16:08:04.390Z,100329.97
2022-11-05T16:10:37.995Z,100323.66
2022-11-05T16:13:32.491Z,100333.56
2022-11-05T16:16:13.388Z,100339.03
2022-11-05T16:18:42.516Z,100338.53
2022-11-05T16:21:12.671Z,100335.03
2022-11-05T16:24:02.114Z,100345.63
2022-11-05T16:27:01.780Z,100349.16
2022-11-05T16:29:36.882Z,100337.78
2022-11-05T16:32:30.549Z,100349.97
2022-11-05T16:35:04.828Z,100351.03
2022-11-05T16:37:40.023Z,100350.81
2022-11-05T16:40:26.708Z,100351.91
2022-11-05T16:42:55.229Z,100356.25
2022-11-05T16:45:24.882Z,100362.28
2022-11-05T16:47:52.896Z,100363.09
2022-11-05T16:50:30.017Z,100376.06
2022-11-05T16:52:57.657Z,100380.53
2022-11-05T16:55:25.599Z,100382.25
2022-11-05T16:57:55.270Z,100383.16
2022-11-05T17:00:24.155Z,100386.66
2022-11-05T17:02:52.800Z,100388.38
2022-11-05T17:05:27.863Z,100389.19
2022-11-05T17:07:56.498Z,100391.56
2022-11-05T17:10:25.871Z,100400.91
2022-11-05T17:12:54.237Z,100403.09
2022-11-05T17:15:31.281Z,100400.78
2022-11-05T17:17:59.768Z,100400.94
2022-11-05T17:20:39.486Z,100404.63
2022-11-05T17:23:11.109Z,100407.31
2022-11-05T17:25:40.804Z,100410.81
2022-11-05T17:28:09.674Z,100416.84
2022-11-05T17:30:41.428Z,100419.63
2022-11-05T17:33:11.859Z,100419.47
2022-11-05T17:35:41.138Z,100421.91
2022-11-05T17:38:09.815Z,100427.22
2022-11-05T17:40:38.499Z,100432.34
2022-11-05T17:43:06.555Z,100433.22
2022-11-05T17:45:34.789Z,100434.94
2022-11-05T17:48:03.378Z,100437.63
2022-11-05T17:50:31.364Z,100438.41
2022-11-05T17:52:58.983Z,100445.41
2022-11-05T17:55:26.967Z,100442.78
2022-11-05T17:57:54.639Z,100435.63
2022-11-05T18:00:24.125Z,100438.28
2022-11-05T18:02:53.767Z,100447.88
2022-11-05T18:05:22.850Z,100454.03
2022-11-05T18:07:51.184Z,100457.47
2022-11-05T18:10:19.225Z,100461.66
2022-11-05T18:12:47.194Z,100457.38
2022-11-05T18:15:16.424Z,100456.44
2022-11-05T18:17:45.705Z,100451.25
2022-11-05T18:20:18.959Z,100454.72
2022-11-05T18:22:51.077Z,100452.06
2022-11-05T18:25:19.286Z,100454.59
2022-11-05T18:27:47.094Z,100457.16
2022-11-05T18:30:15.964Z,100458.94
2022-11-05T18:32:45.246Z,100458.16
2022-11-05T18:35:14.522Z,100459.69
2022-11-05T18:37:42.791Z,100464.75
2022-11-05T18:40:11.974Z,100463.97
2022-11-05T18:42:39.931Z,100459.59
2022-11-05T18:45:09.081Z,100459.09
2022-11-05T18:47:37.117Z,100457.41
2022-11-05T18:50:06.751Z,100457.81
2022-11-05T18:52:34.526Z,100458.63
2022-11-05T18:55:02.462Z,100464.75
2022-11-05T18:57:32.374Z,100469.16
2022-11-05T19:00:00.371Z,100464.75
2022-11-05T19:02:28.201Z,100468.25
2022-11-05T19:05:26.758Z,100470.78
2022-11-05T19:07:43.972Z,100474.78
2022-11-05T19:10:11.864Z,100466.38
2022-11-05T19:12:39.620Z,100466.38
2022-11-05T19:15:08.337Z,100466.34
2022-11-05T19:17:36.541Z,100468.03
2022-11-05T19:20:05.671Z,100473.31
2022-11-05T19:22:33.430Z,100481.88
2022-11-05T19:25:01.536Z,100479.22
2022-11-05T19:27:29.217Z,100482.63
2022-11-05T19:29:57.223Z,100483.50
2022-11-05T19:32:25.039Z,100485.16
2022-11-05T19:34:53.099Z,100486.78
2022-11-05T19:37:20.824Z,100495.53
2022-11-05T19:39:48.971Z,100495.34
2022-11-05T19:42:16.613Z,100488.34
2022-11-05T19:44:44.682Z,100496.97
2022-11-05T19:47:12.359Z,100496.06
2022-11-05T19:49:40.300Z,100493.50
2022-11-05T19:52:08.026Z,100497.94
2022-11-05T19:54:36.041Z,100497.97
2022-11-05T19:57:03.780Z,100500.06
2022-11-05T19:59:31.889Z,100499.03
2022-11-05T20:01:59.687Z,100503.41
2022-11-05T20:04:27.839Z,100513.84
2022-11-05T20:06:55.603Z,100514.72
2022-11-05T20:09:23.879Z,100512.28
2022-11-05T20:11:56.802Z,100511.97
2022-11-05T20:14:25.927Z,100515.22
2022-11-05T20:16:53.994Z,100522.38
2022-11-05T20:19:23.193Z,100527.63
2022-11-05T20:21:51.175Z,100522.50
2022-11-05T20:24:24.662Z,100530.31
2022-11-05T20:26:57.116Z,100538.84
2022-11-05T20:29:32.212Z,100535.06
2022-11-05T20:32:03.827Z,100546.59
2022-11-05T20:34:33.239Z,100539.66
2022-11-05T20:37:01.591Z,100545.91
2022-11-05T20:39:29.724Z,100553.66
2022-11-05T20:41:57.450Z,100553.09
2022-11-05T20:44:25.323Z,100543.34
2022-11-05T20:46:53.192Z,100549.78
2022-11-05T20:49:25.154Z,100559.19
2022-11-05T20:51:54.052Z,100559.81
2022-11-05T20:54:22.677Z,100564.34
2022-11-05T20:56:50.523Z,100571.28
2022-11-05T20:59:19.486Z,100564.16
2022-11-05T21:01:47.328Z,100564.16
2022-11-05T21:04:15.522Z,100571.13
2022-11-05T21:06:43.219Z,100568.00
2022-11-05T21:09:11.460Z,100577.03
2022-11-05T21:11:57.583Z,100577.91
2022-11-05T21:14:25.482Z,100578.06
2022-11-05T21:16:53.150Z,100580.09
2022-11-05T21:19:23.977Z,100580.84
2022-11-05T21:21:51.736Z,100573.94
2022-11-05T21:24:19.679Z,100569.47
2022-11-05T21:26:50.034Z,100569.63
2022-11-05T21:29:18.647Z,100570.47
2022-11-05T21:31:47.034Z,100567.94
2022-11-05T21:34:15.851Z,100576.66
2022-11-05T21:36:43.487Z,100578.63
2022-11-05T21:39:13.654Z,100574.38
2022-11-05T21:41:42.826Z,100578.78
2022-11-05T21:44:10.890Z,100578.47
2022-11-05T21:46:38.583Z,100579.19
2022-11-05T21:49:06.601Z,100582.63
2022-11-05T21:51:52.745Z,100583.69
2022-11-05T21:54:39.254Z,100585.25
2022-11-05T21:57:31.953Z,100578.47
2022-11-05T22:00:01.420Z,100580.25
2022-11-05T22:02:32.434Z,100582.88
2022-11-05T22:05:02.254Z,100580.25
2022-11-05T22:07:35.846Z,100584.53
2022-11-05T22:10:13.290Z,100581.06
2022-11-05T22:12:44.535Z,100584.47
2022-11-05T22:15:13.007Z,100580.25
2022-11-05T22:17:45.481Z,100587.03
2022-11-05T22:20:14.758Z,100585.44
2022-11-05T22:22:42.546Z,100583.38
2022-11-05T22:25:10.619Z,100590.31
2022-11-05T22:27:38.509Z,100596.44
2022-11-05T22:30:06.910Z,100604.25
2022-11-05T22:32:34.669Z,100604.28
2022-11-05T22:35:02.630Z,100594.75
2022-11-05T22:37:30.254Z,100602.56
2022-11-05T22:39:58.254Z,100607.88
2022-11-05T22:42:26.066Z,100606.84
2022-11-05T22:44:54.216Z,100614.72
2022-11-05T22:47:21.831Z,100605.25
2022-11-05T22:49:50.647Z,100616.31
2022-11-05T22:52:18.285Z,100618.97
2022-11-05T22:54:47.791Z,100611.22
2022-11-05T22:57:15.585Z,100615.50
2022-11-05T22:59:43.554Z,100612.84
2022-11-05T23:02:11.485Z,100619.03
2022-11-05T23:04:39.716Z,100611.34
2022-11-05T23:07:27.847Z,100606.16
2022-11-05T23:10:15.043Z,100612.28
2022-11-05T23:12:44.488Z,100613.34
2022-11-05T23:15:33.424Z,100617.53
2022-11-05T23:18:19.817Z,100612.25
2022-11-05T23:21:06.499Z,100620.19
2022-11-05T23:23:52.717Z,100623.78
2022-11-05T23:26:38.897Z,100624.59
2022-11-05T23:29:06.699Z,100620.19
2022-11-05T23:31:53.019Z,100621.13
2022-11-05T23:34:20.702Z,100617.69
2022-11-05T23:37:07.075Z,100618.63
2022-11-05T23:39:41.205Z,100605.69
2022-11-05T23:42:29.477Z,100615.88
2022-11-05T23:45:16.214Z,100618.47
2022-11-05T23:48:02.527Z,100612.63
2022-11-05T23:50:35.571Z,100624.75
2022-11-05T23:53:08.127Z,100622.06
2022-11-05T23:55:36.354Z,100626.63
2022-11-05T23:58:04.419Z,100628.19
